sensor_id;sensor_type;location;lat;lon;timestamp;pressure;altitude;pressure_sealevel;temperature;humidity
3102;BME280;1561;42.666;23.392;2023-06-10T00:02:13;94817.84;;;17.99;100.00
3102;BME280;1561;42.666;23.392;2023-06-10T00:04:47;94804.91;;;17.70;100.00
3102;BME280;1561;42.666;23.392;2023-06-10T00:07:17;94817.84;;;17.99;100.00
3102;BME280;1561;42.666;23.392;2023-06-10T00:09:46;94814.03;;;18.39;100.00
3102;BME280;1561;42.666;23.392;2023-06-10T00:12:15;94816.75;;;18.52;100.00
3102;BME280;1561;42.666;23.392;2023-06-10T00:14:49;94815.34;;;18.49;100.00
3102;BME280;1561;42.666;23.392;2023-06-10T00:17:17;94818.28;;;18.17;100.00
3102;BME280;1561;42.666;23.392;2023-06-10T00:19:49;94822.13;;;18.21;100.00
3102;BME280;1561;42.666;23.392;2023-06-10T00:22:18;94820.19;;;18.09;100.00
3102;BME280;1561;42.666;23.392;2023-06-10T00:24:47;94813.38;;;17.64;100.00
3102;BME280;1561;42.666;23.392;2023-06-10T00:27:20;94808.34;;;17.48;100.00
3102;BME280;1561;42.666;23.392;2023-06-10T00:29:49;94818.09;;;17.75;100.00
3102;BME280;1561;42.666;23.392;2023-06-10T00:32:18;94814.88;;;17.73;100.00
3102;BME280;1561;42.666;23.392;2023-06-10T00:34:45;94818.09;;;17.61;100.00
3102;BME280;1561;42.666;23.392;2023-06-10T00:37:12;94825.66;;;17.77;100.00
3102;BME280;1561;42.666;23.392;2023-06-10T00:39:46;94823.25;;;17.61;100.00
3102;BME280;1561;42.666;23.392;2023-06-10T00:42:16;94827.56;;;17.83;100.00
3102;BME280;1561;42.666;23.392;2023-06-10T00:44:53;94827.13;;;17.94;100.00
3102;BME280;1561;42.666;23.392;2023-06-10T00:47:21;94826.13;;;17.95;100.00
3102;BME280;1561;42.666;23.392;2023-06-10T00:49:49;94824.78;;;17.84;100.00
3102;BME280;1561;42.666;23.392;2023-06-10T00:52:27;94810.25;;;17.83;100.00
3102;BME280;1561;42.666;23.392;2023-06-10T00:55:04;94815.50;;;17.75;100.00
3102;BME280;1561;42.666;23.392;2023-06-10T00:57:36;94812.16;;;17.89;100.00
3102;BME280;1561;42.666;23.392;2023-06-10T01:00:06;94790.53;;;17.53;100.00
3102;BME280;1561;42.666;23.392;2023-06-10T01:02:45;94815.06;;;17.72;100.00
3102;BME280;1561;42.666;23.392;2023-06-10T01:05:18;94827.66;;;17.89;100.00
3102;BME280;1561;42.666;23.392;2023-06-10T01:07:56;94812.81;;;17.69;100.00
3102;BME280;1561;42.666;23.392;2023-06-10T01:10:49;94764.81;;;17.89;100.00
3102;BME280;1561;42.666;23.392;2023-06-10T01:13:20;94828.13;;;18.07;100.00
3102;BME280;1561;42.666;23.392;2023-06-10T01:15:50;94825.56;;;17.70;100.00
3102;BME280;1561;42.666;23.392;2023-06-10T01:18:21;94830.16;;;17.83;100.00
3102;BME280;1561;42.666;23.392;2023-06-10T01:20:50;94831.19;;;17.88;100.00
3102;BME280;1561;42.666;23.392;2023-06-10T01:23:34;94829.78;;;17.86;100.00
3102;BME280;1561;42.666;23.392;2023-06-10T01:26:06;94822.56;;;17.81;100.00
3102;BME280;1561;42.666;23.392;2023-06-10T01:28:40;94829.16;;;17.84;100.00
3102;BME280;1561;42.666;23.392;2023-06-10T01:31:30;94824.69;;;17.92;100.00
3102;BME280;1561;42.666;23.392;2023-06-10T01:34:04;94826.56;;;18.13;100.00
3102;BME280;1561;42.666;23.392;2023-06-10T01:36:43;94753.16;;;17.78;100.00
3102;BME280;1561;42.666;23.392;2023-06-10T01:39:15;94813.72;;;18.19;100.00
3102;BME280;1561;42.666;23.392;2023-06-10T01:41:45;94819.66;;;18.42;100.00
3102;BME280;1561;42.666;23.392;2023-06-10T01:44:19;94789.22;;;18.15;100.00
3102;BME280;1561;42.666;23.392;2023-06-10T01:46:49;94809.72;;;18.31;100.00
3102;BME280;1561;42.666;23.392;2023-06-10T01:49:22;94820.69;;;18.48;100.00
3102;BME280;1561;42.666;23.392;2023-06-10T01:51:52;94815.09;;;18.44;100.00
3102;BME280;1561;42.666;23.392;2023-06-10T01:54:50;94816.59;;;18.39;100.00
3102;BME280;1561;42.666;23.392;2023-06-10T01:57:19;94811.25;;;18.40;100.00
3102;BME280;1561;42.666;23.392;2023-06-10T01:59:49;94819.00;;;18.40;100.00
3102;BME280;1561;42.666;23.392;2023-06-10T02:02:20;94806.72;;;18.42;100.00
3102;BME280;1561;42.666;23.392;2023-06-10T02:04:49;94807.75;;;18.48;100.00
3102;BME280;1561;42.666;23.392;2023-06-10T02:07:20;94803.75;;;18.45;100.00
3102;BME280;1561;42.666;23.392;2023-06-10T02:09:56;94806.59;;;18.50;100.00
3102;BME280;1561;42.666;23.392;2023-06-10T02:12:32;94809.16;;;18.65;100.00
3102;BME280;1561;42.666;23.392;2023-06-10T02:15:06;94802.13;;;18.30;100.00
3102;BME280;1561;42.666;23.392;2023-06-10T02:17:35;94744.22;;;17.95;100.00
3102;BME280;1561;42.666;23.392;2023-06-10T02:20:05;94797.34;;;18.12;100.00
3102;BME280;1561;42.666;23.392;2023-06-10T02:22:37;94787.25;;;18.32;100.00
3102;BME280;1561;42.666;23.392;2023-06-10T02:25:08;94796.00;;;18.16;100.00
3102;BME280;1561;42.666;23.392;2023-06-10T02:27:38;94801.63;;;18.05;100.00
3102;BME280;1561;42.666;23.392;2023-06-10T02:30:06;94781.19;;;18.25;100.00
3102;BME280;1561;42.666;23.392;2023-06-10T02:32:36;94775.16;;;17.89;100.00
3102;BME280;1561;42.666;23.392;2023-06-10T02:35:11;94784.78;;;17.95;100.00
3102;BME280;1561;42.666;23.392;2023-06-10T02:37:39;94789.78;;;18.11;100.00
3102;BME280;1561;42.666;23.392;2023-06-10T02:40:16;94783.63;;;18.12;100.00
3102;BME280;1561;42.666;23.392;2023-06-10T02:42:44;94770.16;;;18.02;100.00
3102;BME280;1561;42.666;23.392;2023-06-10T02:45:19;94785.66;;;18.16;100.00
3102;BME280;1561;42.666;23.392;2023-06-10T02:47:48;94771.75;;;17.88;100.00
3102;BME280;1561;42.666;23.392;2023-06-10T02:50:18;94784.78;;;18.24;100.00
3102;BME280;1561;42.666;23.392;2023-06-10T02:52:48;94788.53;;;18.07;100.00
3102;BME280;1561;42.666;23.392;2023-06-10T02:55:22;94776.59;;;18.06;100.00
3102;BME280;1561;42.666;23.392;2023-06-10T02:57:52;94757.41;;;18.00;100.00
3102;BME280;1561;42.666;23.392;2023-06-10T03:00:19;94765.34;;;17.99;100.00
3102;BME280;1561;42.666;23.392;2023-06-10T03:02:47;94753.56;;;18.11;100.00
3102;BME280;1561;42.666;23.392;2023-06-10T03:05:24;94761.88;;;17.92;100.00
3102;BME280;1561;42.666;23.392;2023-06-10T03:07:57;94778.53;;;18.04;100.00
3102;BME280;1561;42.666;23.392;2023-06-10T03:10:30;94719.28;;;17.73;100.00
3102;BME280;1561;42.666;23.392;2023-06-10T03:13:00;94724.53;;;17.65;100.00
3102;BME280;1561;42.666;23.392;2023-06-10T03:15:31;94788.91;;;17.89;100.00
3102;BME280;1561;42.666;23.392;2023-06-10T03:18:03;94783.19;;;17.94;100.00
3102;BME280;1561;42.666;23.392;2023-06-10T03:20:32;94772.56;;;17.74;100.00
3102;BME280;1561;42.666;23.392;2023-06-10T03:23:10;94785.84;;;18.00;100.00
3102;BME280;1561;42.666;23.392;2023-06-10T03:25:45;94767.16;;;17.84;100.00
3102;BME280;1561;42.666;23.392;2023-06-10T03:28:14;94792.63;;;17.87;100.00
3102;BME280;1561;42.666;23.392;2023-06-10T03:31:06;94794.84;;;17.90;100.00
3102;BME280;1561;42.666;23.392;2023-06-10T03:33:33;94799.13;;;17.83;100.00
3102;BME280;1561;42.666;23.392;2023-06-10T03:36:01;94802.25;;;17.93;100.00
3102;BME280;1561;42.666;23.392;2023-06-10T03:38:31;94805.47;;;18.09;100.00
3102;BME280;1561;42.666;23.392;2023-06-10T03:41:05;94805.09;;;18.27;100.00
3102;BME280;1561;42.666;23.392;2023-06-10T03:43:35;94809.56;;;18.18;100.00
3102;BME280;1561;42.666;23.392;2023-06-10T03:46:07;94758.22;;;18.01;100.00
3102;BME280;1561;42.666;23.392;2023-06-10T03:48:38;94813.81;;;18.26;100.00
3102;BME280;1561;42.666;23.392;2023-06-10T03:51:06;94795.75;;;17.82;100.00
3102;BME280;1561;42.666;23.392;2023-06-10T03:53:37;94814.97;;;17.65;100.00
3102;BME280;1561;42.666;23.392;2023-06-10T03:56:09;94800.97;;;17.60;100.00
3102;BME280;1561;42.666;23.392;2023-06-10T03:58:38;94749.16;;;17.24;100.00
3102;BME280;1561;42.666;23.392;2023-06-10T04:01:06;94805.41;;;17.29;100.00
3102;BME280;1561;42.666;23.392;2023-06-10T04:03:37;94803.19;;;17.26;100.00
3102;BME280;1561;42.666;23.392;2023-06-10T04:06:06;94803.97;;;17.26;100.00
3102;BME280;1561;42.666;23.392;2023-06-10T04:08:34;94803.53;;;17.45;100.00
3102;BME280;1561;42.666;23.392;2023-06-10T04:11:02;94812.47;;;17.35;100.00
3102;BME280;1561;42.666;23.392;2023-06-10T04:13:44;94813.28;;;17.72;100.00
3102;BME280;1561;42.666;23.392;2023-06-10T04:16:35;94779.81;;;17.42;100.00
3102;BME280;1561;42.666;23.392;2023-06-10T04:19:08;94734.72;;;17.15;100.00
3102;BME280;1561;42.666;23.392;2023-06-10T04:21:40;94793.03;;;17.61;100.00
3102;BME280;1561;42.666;23.392;2023-06-10T04:24:11;94813.19;;;17.66;100.00
3102;BME280;1561;42.666;23.392;2023-06-10T04:26:38;94817.03;;;17.84;100.00
3102;BME280;1561;42.666;23.392;2023-06-10T04:29:10;94795.78;;;17.45;100.00
3102;BME280;1561;42.666;23.392;2023-06-10T04:31:40;94810.28;;;17.24;100.00
3102;BME280;1561;42.666;23.392;2023-06-10T04:34:09;94813.28;;;17.13;100.00
3102;BME280;1561;42.666;23.392;2023-06-10T04:36:53;94817.06;;;17.47;100.00
3102;BME280;1561;42.666;23.392;2023-06-10T04:39:36;94820.41;;;17.56;100.00
3102;BME280;1561;42.666;23.392;2023-06-10T04:42:03;94757.06;;;17.23;100.00
3102;BME280;1561;42.666;23.392;2023-06-10T04:45:08;94814.50;;;17.47;100.00
3102;BME280;1561;42.666;23.392;2023-06-10T04:47:45;94782.75;;;17.39;100.00
3102;BME280;1561;42.666;23.392;2023-06-10T04:50:19;94815.13;;;17.49;100.00
3102;BME280;1561;42.666;23.392;2023-06-10T04:53:09;94793.16;;;17.31;100.00
3102;BME280;1561;42.666;23.392;2023-06-10T04:55:45;94785.19;;;17.18;100.00
3102;BME280;1561;42.666;23.392;2023-06-10T04:58:40;94814.41;;;17.33;100.00
3102;BME280;1561;42.666;23.392;2023-06-10T05:01:19;94813.09;;;17.37;100.00
3102;BME280;1561;42.666;23.392;2023-06-10T05:03:52;94814.06;;;17.58;100.00
3102;BME280;1561;42.666;23.392;2023-06-10T05:06:34;94806.41;;;17.79;100.00
3102;BME280;1561;42.666;23.392;2023-06-10T05:09:04;94809.47;;;17.83;100.00
3102;BME280;1561;42.666;23.392;2023-06-10T05:11:44;94791.72;;;17.80;100.00
3102;BME280;1561;42.666;23.392;2023-06-10T05:14:22;94819.69;;;17.91;100.00
3102;BME280;1561;42.666;23.392;2023-06-10T05:17:13;94815.72;;;18.46;100.00
3102;BME280;1561;42.666;23.392;2023-06-10T05:19:54;94796.06;;;18.52;100.00
3102;BME280;1561;42.666;23.392;2023-06-10T05:25:20;94803.94;;;18.44;100.00
3102;BME280;1561;42.666;23.392;2023-06-10T05:27:52;94806.81;;;19.05;100.00
3102;BME280;1561;42.666;23.392;2023-06-10T05:30:36;94786.75;;;18.72;100.00
3102;BME280;1561;42.666;23.392;2023-06-10T05:33:15;94816.53;;;18.82;100.00
3102;BME280;1561;42.666;23.392;2023-06-10T05:35:47;94815.66;;;18.75;100.00
3102;BME280;1561;42.666;23.392;2023-06-10T05:38:17;94809.88;;;19.15;100.00
3102;BME280;1561;42.666;23.392;2023-06-10T05:40:51;94812.25;;;19.31;100.00
3102;BME280;1561;42.666;23.392;2023-06-10T05:43:24;94815.56;;;19.25;100.00
3102;BME280;1561;42.666;23.392;2023-06-10T05:45:52;94819.97;;;19.25;100.00
3102;BME280;1561;42.666;23.392;2023-06-10T05:48:45;94819.75;;;19.47;100.00
3102;BME280;1561;42.666;23.392;2023-06-10T05:51:22;94812.63;;;19.28;100.00
3102;BME280;1561;42.666;23.392;2023-06-10T05:53:55;94820.06;;;19.17;100.00
3102;BME280;1561;42.666;23.392;2023-06-10T05:56:25;94817.66;;;19.57;100.00
3102;BME280;1561;42.666;23.392;2023-06-10T05:59:04;94812.44;;;19.51;100.00
3102;BME280;1561;42.666;23.392;2023-06-10T06:01:33;94815.09;;;19.91;100.00
3102;BME280;1561;42.666;23.392;2023-06-10T06:04:05;94821.44;;;20.10;100.00
3102;BME280;1561;42.666;23.392;2023-06-10T06:06:41;94829.50;;;20.00;100.00
3102;BME280;1561;42.666;23.392;2023-06-10T06:09:08;94828.44;;;20.16;100.00
3102;BME280;1561;42.666;23.392;2023-06-10T06:11:37;94818.16;;;20.82;100.00
3102;BME280;1561;42.666;23.392;2023-06-10T06:14:04;94824.75;;;20.38;100.00
3102;BME280;1561;42.666;23.392;2023-06-10T06:16:32;94806.31;;;20.60;100.00
3102;BME280;1561;42.666;23.392;2023-06-10T06:19:02;94820.94;;;20.74;100.00
3102;BME280;1561;42.666;23.392;2023-06-10T06:21:43;94812.25;;;21.01;100.00
3102;BME280;1561;42.666;23.392;2023-06-10T06:24:15;94820.34;;;20.04;100.00
3102;BME280;1561;42.666;23.392;2023-06-10T06:27:00;94811.06;;;20.50;100.00
3102;BME280;1561;42.666;23.392;2023-06-10T06:29:29;94810.66;;;21.07;100.00
3102;BME280;1561;42.666;23.392;2023-06-10T06:32:00;94797.94;;;20.58;100.00
3102;BME280;1561;42.666;23.392;2023-06-10T06:34:49;94811.72;;;20.65;100.00
3102;BME280;1561;42.666;23.392;2023-06-10T06:37:40;94815.63;;;20.95;100.00
3102;BME280;1561;42.666;23.392;2023-06-10T06:40:10;94797.47;;;21.02;100.00
3102;BME280;1561;42.666;23.392;2023-06-10T06:42:39;94809.75;;;21.73;100.00
3102;BME280;1561;42.666;23.392;2023-06-10T06:45:32;94810.91;;;21.64;100.00
3102;BME280;1561;42.666;23.392;2023-06-10T06:48:25;94808.50;;;21.69;100.00
3102;BME280;1561;42.666;23.392;2023-06-10T06:51:15;94797.22;;;22.33;100.00
3102;BME280;1561;42.666;23.392;2023-06-10T06:53:49;94706.53;;;21.54;100.00
3102;BME280;1561;42.666;23.392;2023-06-10T06:56:25;94755.34;;;21.71;100.00
3102;BME280;1561;42.666;23.392;2023-06-10T06:59:00;94736.13;;;21.46;100.00
3102;BME280;1561;42.666;23.392;2023-06-10T07:01:34;94804.88;;;21.31;100.00
3102;BME280;1561;42.666;23.392;2023-06-10T07:04:04;94799.31;;;21.34;100.00
3102;BME280;1561;42.666;23.392;2023-06-10T07:06:38;94799.28;;;22.05;100.00
3102;BME280;1561;42.666;23.392;2023-06-10T07:09:18;94796.78;;;22.43;100.00
3102;BME280;1561;42.666;23.392;2023-06-10T07:11:59;94778.75;;;22.92;100.00
3102;BME280;1561;42.666;23.392;2023-06-10T07:14:35;94792.41;;;23.25;100.00
3102;BME280;1561;42.666;23.392;2023-06-10T07:17:09;94786.22;;;23.51;100.00
3102;BME280;1561;42.666;23.392;2023-06-10T07:19:44;94788.66;;;23.21;100.00
3102;BME280;1561;42.666;23.392;2023-06-10T07:22:19;94792.53;;;23.05;100.00
3102;BME280;1561;42.666;23.392;2023-06-10T07:24:52;94779.28;;;23.38;100.00
3102;BME280;1561;42.666;23.392;2023-06-10T07:27:27;94780.69;;;23.34;100.00
3102;BME280;1561;42.666;23.392;2023-06-10T07:29:56;94774.59;;;23.22;100.00
3102;BME280;1561;42.666;23.392;2023-06-10T07:32:29;94785.34;;;23.81;100.00
3102;BME280;1561;42.666;23.392;2023-06-10T07:34:59;94780.50;;;24.45;100.00
3102;BME280;1561;42.666;23.392;2023-06-10T07:37:31;94787.25;;;24.53;100.00
3102;BME280;1561;42.666;23.392;2023-06-10T07:40:02;94779.19;;;24.54;100.00
3102;BME280;1561;42.666;23.392;2023-06-10T07:42:36;94775.56;;;24.37;100.00
3102;BME280;1561;42.666;23.392;2023-06-10T07:45:11;94781.34;;;24.39;100.00
3102;BME280;1561;42.666;23.392;2023-06-10T07:47:41;94742.47;;;23.28;100.00
3102;BME280;1561;42.666;23.392;2023-06-10T07:50:10;94786.53;;;25.75;100.00
3102;BME280;1561;42.666;23.392;2023-06-10T07:52:57;94771.94;;;28.48;84.89
3102;BME280;1561;42.666;23.392;2023-06-10T07:55:27;94776.66;;;26.86;89.78
3102;BME280;1561;42.666;23.392;2023-06-10T07:57:56;94767.63;;;26.31;87.56
3102;BME280;1561;42.666;23.392;2023-06-10T08:00:25;94775.88;;;26.00;89.17
3102;BME280;1561;42.666;23.392;2023-06-10T08:02:59;94764.22;;;26.81;82.72
3102;BME280;1561;42.666;23.392;2023-06-10T08:05:30;94721.34;;;25.62;80.62
3102;BME280;1561;42.666;23.392;2023-06-10T08:07:58;94783.22;;;26.37;78.08
3102;BME280;1561;42.666;23.392;2023-06-10T08:10:37;94758.34;;;26.00;81.30
3102;BME280;1561;42.666;23.392;2023-06-10T08:13:07;94781.28;;;27.12;77.50
3102;BME280;1561;42.666;23.392;2023-06-10T08:15:44;94757.78;;;28.49;64.97
3102;BME280;1561;42.666;23.392;2023-06-10T08:18:22;94761.06;;;28.61;67.56
3102;BME280;1561;42.666;23.392;2023-06-10T08:21:03;94766.19;;;28.13;62.13
3102;BME280;1561;42.666;23.392;2023-06-10T08:23:32;94749.72;;;29.98;56.35
3102;BME280;1561;42.666;23.392;2023-06-10T08:26:05;94748.00;;;29.46;59.34
3102;BME280;1561;42.666;23.392;2023-06-10T08:28:34;94712.06;;;29.56;57.42
3102;BME280;1561;42.666;23.392;2023-06-10T08:31:19;94739.16;;;31.01;50.62
3102;BME280;1561;42.666;23.392;2023-06-10T08:33:51;94748.25;;;31.90;50.10
3102;BME280;1561;42.666;23.392;2023-06-10T08:36:20;94751.66;;;30.59;52.14
3102;BME280;1561;42.666;23.392;2023-06-10T08:38:48;94743.50;;;30.61;50.70
3102;BME280;1561;42.666;23.392;2023-06-10T08:41:24;94742.56;;;30.97;48.84
3102;BME280;1561;42.666;23.392;2023-06-10T08:44:01;94741.84;;;31.21;49.32
3102;BME280;1561;42.666;23.392;2023-06-10T08:46:47;94732.94;;;31.77;46.94
3102;BME280;1561;42.666;23.392;2023-06-10T08:49:25;94740.69;;;30.87;46.34
3102;BME280;1561;42.666;23.392;2023-06-10T08:52:02;94730.59;;;29.71;48.98
3102;BME280;1561;42.666;23.392;2023-06-10T08:54:38;94742.09;;;29.02;51.45
3102;BME280;1561;42.666;23.392;2023-06-10T08:57:21;94718.09;;;30.40;48.29
3102;BME280;1561;42.666;23.392;2023-06-10T08:59:57;94733.03;;;29.46;48.92
3102;BME280;1561;42.666;23.392;2023-06-10T09:02:27;94710.81;;;29.69;50.38
3102;BME280;1561;42.666;23.392;2023-06-10T09:04:57;94730.44;;;30.86;48.03
3102;BME280;1561;42.666;23.392;2023-06-10T09:07:27;94726.34;;;29.38;49.60
3102;BME280;1561;42.666;23.392;2023-06-10T09:10:01;94717.31;;;31.71;45.82
3102;BME280;1561;42.666;23.392;2023-06-10T09:12:36;94722.34;;;30.46;48.13
3102;BME280;1561;42.666;23.392;2023-06-10T09:15:07;94696.47;;;32.68;42.81
3102;BME280;1561;42.666;23.392;2023-06-10T09:17:43;94695.41;;;31.40;43.92
3102;BME280;1561;42.666;23.392;2023-06-10T09:20:21;94697.50;;;30.32;47.63
3102;BME280;1561;42.666;23.392;2023-06-10T09:22:56;94691.44;;;31.38;44.64
3102;BME280;1561;42.666;23.392;2023-06-10T09:25:35;94690.88;;;31.16;47.15
3102;BME280;1561;42.666;23.392;2023-06-10T09:28:13;94717.84;;;31.93;44.14
3102;BME280;1561;42.666;23.392;2023-06-10T09:30:48;94707.78;;;32.00;44.43
3102;BME280;1561;42.666;23.392;2023-06-10T09:33:23;94711.22;;;29.87;49.47
3102;BME280;1561;42.666;23.392;2023-06-10T09:35:55;94696.94;;;29.78;50.75
3102;BME280;1561;42.666;23.392;2023-06-10T09:38:39;94701.44;;;29.88;49.88
3102;BME280;1561;42.666;23.392;2023-06-10T09:41:15;94713.78;;;29.14;52.25
3102;BME280;1561;42.666;23.392;2023-06-10T09:43:50;94690.97;;;29.93;50.22
3102;BME280;1561;42.666;23.392;2023-06-10T09:46:23;94695.94;;;31.47;46.83
3102;BME280;1561;42.666;23.392;2023-06-10T09:48:57;94705.38;;;30.88;47.73
3102;BME280;1561;42.666;23.392;2023-06-10T09:51:31;94686.66;;;31.85;45.00
3102;BME280;1561;42.666;23.392;2023-06-10T09:54:06;94690.03;;;30.80;48.39
3102;BME280;1561;42.666;23.392;2023-06-10T09:56:39;94688.44;;;32.29;45.20
3102;BME280;1561;42.666;23.392;2023-06-10T09:59:28;94690.44;;;29.96;49.84
3102;BME280;1561;42.666;23.392;2023-06-10T10:02:16;94689.56;;;28.21;56.96
3102;BME280;1561;42.666;23.392;2023-06-10T10:04:47;94688.81;;;28.90;54.64
3102;BME280;1561;42.666;23.392;2023-06-10T10:07:21;94686.72;;;30.38;50.07
3102;BME280;1561;42.666;23.392;2023-06-10T10:09:50;94637.75;;;30.57;48.58
3102;BME280;1561;42.666;23.392;2023-06-10T10:12:24;94672.91;;;30.88;47.01
3102;BME280;1561;42.666;23.392;2023-06-10T10:15:29;94671.13;;;31.23;47.09
3102;BME280;1561;42.666;23.392;2023-06-10T10:18:05;94669.25;;;29.76;49.91
3102;BME280;1561;42.666;23.392;2023-06-10T10:20:50;94662.69;;;30.30;47.93
3102;BME280;1561;42.666;23.392;2023-06-10T10:23:26;94656.56;;;30.96;47.07
3102;BME280;1561;42.666;23.392;2023-06-10T10:26:20;94654.69;;;30.96;47.26
3102;BME280;1561;42.666;23.392;2023-06-10T10:29:01;94672.41;;;28.56;54.58
3102;BME280;1561;42.666;23.392;2023-06-10T10:32:10;94666.03;;;28.31;56.31
3102;BME280;1561;42.666;23.392;2023-06-10T10:34:55;94641.75;;;27.59;57.37
3102;BME280;1561;42.666;23.392;2023-06-10T10:37:27;94647.25;;;27.41;60.86
3102;BME280;1561;42.666;23.392;2023-06-10T10:39:57;94664.97;;;28.27;59.22
3102;BME280;1561;42.666;23.392;2023-06-10T10:42:26;94643.34;;;28.20;59.29
3102;BME280;1561;42.666;23.392;2023-06-10T10:45:27;94661.25;;;28.97;57.27
3102;BME280;1561;42.666;23.392;2023-06-10T10:48:12;94612.84;;;27.21;60.65
3102;BME280;1561;42.666;23.392;2023-06-10T10:50:42;94637.56;;;27.80;57.11
3102;BME280;1561;42.666;23.392;2023-06-10T10:53:23;94641.25;;;28.43;55.84
3102;BME280;1561;42.666;23.392;2023-06-10T10:55:59;94639.69;;;28.42;56.68
3102;BME280;1561;42.666;23.392;2023-06-10T10:58:29;94638.56;;;28.38;54.86
3102;BME280;1561;42.666;23.392;2023-06-10T11:01:14;94635.25;;;29.69;50.70
3102;BME280;1561;42.666;23.392;2023-06-10T11:04:09;94635.69;;;30.08;49.71
3102;BME280;1561;42.666;23.392;2023-06-10T11:06:54;94628.03;;;29.18;52.48
3102;BME280;1561;42.666;23.392;2023-06-10T11:10:00;94612.34;;;28.70;53.33
3102;BME280;1561;42.666;23.392;2023-06-10T11:12:53;94621.88;;;28.06;55.46
3102;BME280;1561;42.666;23.392;2023-06-10T11:15:25;94629.25;;;27.50;55.28
3102;BME280;1561;42.666;23.392;2023-06-10T11:18:23;94601.88;;;28.48;52.36
3102;BME280;1561;42.666;23.392;2023-06-10T11:21:11;94612.91;;;29.82;48.31
3102;BME280;1561;42.666;23.392;2023-06-10T11:23:49;94597.19;;;28.29;51.00
3102;BME280;1561;42.666;23.392;2023-06-10T11:26:31;94567.56;;;27.69;52.24
3102;BME280;1561;42.666;23.392;2023-06-10T11:29:12;94465.88;;;27.38;51.81
3102;BME280;1561;42.666;23.392;2023-06-10T11:31:50;94534.50;;;28.69;50.17
3102;BME280;1561;42.666;23.392;2023-06-10T11:34:32;94540.56;;;28.69;50.13
3102;BME280;1561;42.666;23.392;2023-06-10T11:37:12;94593.50;;;27.27;57.94
3102;BME280;1561;42.666;23.392;2023-06-10T11:39:44;94604.19;;;27.21;59.83
3102;BME280;1561;42.666;23.392;2023-06-10T11:42:18;94548.75;;;27.17;57.39
3102;BME280;1561;42.666;23.392;2023-06-10T11:44:49;94593.91;;;27.74;55.98
3102;BME280;1561;42.666;23.392;2023-06-10T11:47:24;94576.88;;;27.38;56.66
3102;BME280;1561;42.666;23.392;2023-06-10T11:49:57;94564.50;;;27.17;53.96
3102;BME280;1561;42.666;23.392;2023-06-10T11:52:36;94568.47;;;27.79;52.63
3102;BME280;1561;42.666;23.392;2023-06-10T11:55:08;94579.94;;;28.11;51.49
3102;BME280;1561;42.666;23.392;2023-06-10T11:57:39;94579.94;;;27.90;51.57
3102;BME280;1561;42.666;23.392;2023-06-10T12:00:14;94584.19;;;27.53;53.62
3102;BME280;1561;42.666;23.392;2023-06-10T12:02:46;94558.34;;;27.83;53.27
3102;BME280;1561;42.666;23.392;2023-06-10T12:05:21;94535.91;;;27.54;52.29
3102;BME280;1561;42.666;23.392;2023-06-10T12:10:48;94568.47;;;29.02;49.65
3102;BME280;1561;42.666;23.392;2023-06-10T12:13:17;94575.88;;;28.25;51.18
3102;BME280;1561;42.666;23.392;2023-06-10T12:16:06;94548.69;;;28.68;49.96
3102;BME280;1561;42.666;23.392;2023-06-10T12:18:39;94502.88;;;28.95;47.00
3102;BME280;1561;42.666;23.392;2023-06-10T12:24:08;94560.59;;;28.75;47.45
3102;BME280;1561;42.666;23.392;2023-06-10T12:26:47;94515.28;;;28.37;45.16
3102;BME280;1561;42.666;23.392;2023-06-10T12:29:22;94551.41;;;28.78;44.97
3102;BME280;1561;42.666;23.392;2023-06-10T12:31:59;94559.47;;;28.40;45.76
3102;BME280;1561;42.666;23.392;2023-06-10T12:34:43;94549.09;;;28.28;43.85
3102;BME280;1561;42.666;23.392;2023-06-10T12:37:13;94543.53;;;27.98;43.74
3102;BME280;1561;42.666;23.392;2023-06-10T12:39:50;94506.34;;;27.20;44.21
3102;BME280;1561;42.666;23.392;2023-06-10T12:42:37;94538.97;;;29.00;42.23
3102;BME280;1561;42.666;23.392;2023-06-10T12:45:13;94541.94;;;29.55;42.09
3102;BME280;1561;42.666;23.392;2023-06-10T12:47:41;94539.34;;;28.82;43.70
3102;BME280;1561;42.666;23.392;2023-06-10T12:50:13;94521.88;;;29.02;44.13
3102;BME280;1561;42.666;23.392;2023-06-10T12:52:43;94547.31;;;29.75;42.88
3102;BME280;1561;42.666;23.392;2023-06-10T12:55:22;94538.19;;;29.98;42.76
3102;BME280;1561;42.666;23.392;2023-06-10T12:58:15;94541.13;;;29.08;44.93
3102;BME280;1561;42.666;23.392;2023-06-10T13:00:45;94547.13;;;28.40;46.68
3102;BME280;1561;42.666;23.392;2023-06-10T13:03:17;94528.22;;;28.75;45.41
3102;BME280;1561;42.666;23.392;2023-06-10T13:05:47;94549.13;;;28.07;45.48
3102;BME280;1561;42.666;23.392;2023-06-10T13:08:17;94550.13;;;27.36;47.23
3102;BME280;1561;42.666;23.392;2023-06-10T13:11:05;94548.03;;;28.51;46.21
3102;BME280;1561;42.666;23.392;2023-06-10T13:13:46;94551.75;;;28.86;45.58
3102;BME280;1561;42.666;23.392;2023-06-10T13:16:24;94545.22;;;28.62;45.67
3102;BME280;1561;42.666;23.392;2023-06-10T13:19:00;94537.22;;;28.79;44.62
3102;BME280;1561;42.666;23.392;2023-06-10T13:21:41;94549.41;;;27.84;45.92
3102;BME280;1561;42.666;23.392;2023-06-10T13:24:10;94554.06;;;28.25;45.33
3102;BME280;1561;42.666;23.392;2023-06-10T13:26:53;94555.38;;;28.27;45.57
3102;BME280;1561;42.666;23.392;2023-06-10T13:33:06;94558.63;;;27.86;45.65
3102;BME280;1561;42.666;23.392;2023-06-10T13:35:49;94566.28;;;25.67;64.05
3102;BME280;1561;42.666;23.392;2023-06-10T13:38:23;94576.53;;;25.45;69.78
3102;BME280;1561;42.666;23.392;2023-06-10T13:40:54;94571.31;;;24.88;78.38
3102;BME280;1561;42.666;23.392;2023-06-10T13:43:26;94570.19;;;24.84;82.80
3102;BME280;1561;42.666;23.392;2023-06-10T13:46:13;94571.56;;;24.45;88.40
3102;BME280;1561;42.666;23.392;2023-06-10T13:49:03;94567.63;;;24.25;95.09
3102;BME280;1561;42.666;23.392;2023-06-10T13:51:44;94560.56;;;24.14;99.65
3102;BME280;1561;42.666;23.392;2023-06-10T13:54:25;94565.44;;;24.51;95.62
3102;BME280;1561;42.666;23.392;2023-06-10T13:56:57;94577.38;;;24.59;94.54
3102;BME280;1561;42.666;23.392;2023-06-10T13:59:27;94583.38;;;24.48;96.49
3102;BME280;1561;42.666;23.392;2023-06-10T14:01:59;94590.03;;;24.32;99.25